sensor_id;sensor_type;location;lat;lon;timestamp;P1;durP1;ratioP1;P2;durP2;ratioP2
54917;SDS011;40818;50.562;7.454;2024-02-28T00:06:23;80.28;;;30.95;;
54917;SDS011;40818;50.562;7.454;2024-02-28T00:16:27;85.45;;;30.70;;
54917;SDS011;40818;50.562;7.454;2024-02-28T00:26:33;74.03;;;29.02;;
54917;SDS011;40818;50.562;7.454;2024-02-28T00:36:36;72.38;;;26.17;;
54917;SDS011;40818;50.562;7.454;2024-02-28T00:46:42;82.78;;;31.27;;
54917;SDS011;40818;50.562;7.454;2024-02-28T00:56:46;83.53;;;30.23;;
54917;SDS011;40818;50.562;7.454;2024-02-28T01:06:52;74.22;;;29.42;;
54917;SDS011;40818;50.562;7.454;2024-02-28T01:16:55;88.07;;;30.70;;
54917;SDS011;40818;50.562;7.454;2024-02-28T01:27:01;85.13;;;30.50;;
54917;SDS011;40818;50.562;7.454;2024-02-28T01:37:04;197.93;;;38.90;;
54917;SDS011;40818;50.562;7.454;2024-02-28T01:47:10;95.20;;;32.30;;
54917;SDS011;40818;50.562;7.454;2024-02-28T01:57:14;82.95;;;31.60;;
54917;SDS011;40818;50.562;7.454;2024-02-28T02:07:20;153.68;;;34.88;;
54917;SDS011;40818;50.562;7.454;2024-02-28T02:17:23;76.32;;;28.92;;
54917;SDS011;40818;50.562;7.454;2024-02-28T02:27:29;341.73;;;47.53;;
54917;SDS011;40818;50.562;7.454;2024-02-28T02:37:33;100.80;;;30.80;;
54917;SDS011;40818;50.562;7.454;2024-02-28T02:47:39;171.48;;;31.83;;
54917;SDS011;40818;50.562;7.454;2024-02-28T02:57:44;462.90;;;56.15;;
54917;SDS011;40818;50.562;7.454;2024-02-28T03:07:50;77.57;;;26.42;;
54917;SDS011;40818;50.562;7.454;2024-02-28T03:17:53;95.97;;;27.25;;
54917;SDS011;40818;50.562;7.454;2024-02-28T03:27:59;76.70;;;27.77;;
54917;SDS011;40818;50.562;7.454;2024-02-28T03:38:03;71.05;;;26.70;;
54917;SDS011;40818;50.562;7.454;2024-02-28T03:48:09;418.95;;;47.80;;
54917;SDS011;40818;50.562;7.454;2024-02-28T03:58:12;214.52;;;34.10;;
54917;SDS011;40818;50.562;7.454;2024-02-28T04:08:18;208.70;;;33.92;;
54917;SDS011;40818;50.562;7.454;2024-02-28T04:18:22;99.10;;;30.05;;
54917;SDS011;40818;50.562;7.454;2024-02-28T04:28:28;191.80;;;34.80;;
54917;SDS011;40818;50.562;7.454;2024-02-28T04:38:31;237.48;;;34.60;;
54917;SDS011;40818;50.562;7.454;2024-02-28T04:48:37;69.72;;;26.02;;
54917;SDS011;40818;50.562;7.454;2024-02-28T04:58:40;80.93;;;26.10;;
54917;SDS011;40818;50.562;7.454;2024-02-28T05:08:46;73.45;;;24.42;;
54917;SDS011;40818;50.562;7.454;2024-02-28T05:18:50;67.40;;;24.17;;
54917;SDS011;40818;50.562;7.454;2024-02-28T05:28:56;82.50;;;26.08;;
54917;SDS011;40818;50.562;7.454;2024-02-28T05:38:59;75.03;;;25.58;;
54917;SDS011;40818;50.562;7.454;2024-02-28T05:49:08;183.75;;;33.83;;
54917;SDS011;40818;50.562;7.454;2024-02-28T05:59:11;84.38;;;26.67;;
54917;SDS011;40818;50.562;7.454;2024-02-28T06:09:18;106.43;;;27.98;;
54917;SDS011;40818;50.562;7.454;2024-02-28T06:19:21;98.53;;;27.75;;
54917;SDS011;40818;50.562;7.454;2024-02-28T06:29:27;70.68;;;25.13;;
54917;SDS011;40818;50.562;7.454;2024-02-28T06:39:31;124.90;;;29.55;;
54917;SDS011;40818;50.562;7.454;2024-02-28T06:49:37;99.50;;;27.75;;
54917;SDS011;40818;50.562;7.454;2024-02-28T06:59:40;194.30;;;34.53;;
54917;SDS011;40818;50.562;7.454;2024-02-28T07:09:46;180.95;;;28.95;;
54917;SDS011;40818;50.562;7.454;2024-02-28T07:19:49;72.72;;;25.63;;
54917;SDS011;40818;50.562;7.454;2024-02-28T07:29:55;81.20;;;25.48;;
54917;SDS011;40818;50.562;7.454;2024-02-28T07:39:59;99.68;;;26.67;;
54917;SDS011;40818;50.562;7.454;2024-02-28T07:50:06;74.47;;;27.02;;
54917;SDS011;40818;50.562;7.454;2024-02-28T08:00:12;73.35;;;24.90;;
54917;SDS011;40818;50.562;7.454;2024-02-28T08:10:20;79.03;;;26.15;;
54917;SDS011;40818;50.562;7.454;2024-02-28T08:20:24;79.03;;;25.83;;
54917;SDS011;40818;50.562;7.454;2024-02-28T08:30:33;68.43;;;24.38;;
54917;SDS011;40818;50.562;7.454;2024-02-28T08:40:36;64.35;;;24.90;;
54917;SDS011;40818;50.562;7.454;2024-02-28T08:50:42;64.25;;;22.58;;
54917;SDS011;40818;50.562;7.454;2024-02-28T09:00:46;71.13;;;26.45;;
54917;SDS011;40818;50.562;7.454;2024-02-28T09:10:52;66.55;;;24.50;;
54917;SDS011;40818;50.562;7.454;2024-02-28T09:20:56;63.45;;;22.67;;
54917;SDS011;40818;50.562;7.454;2024-02-28T09:31:02;60.47;;;22.65;;
54917;SDS011;40818;50.562;7.454;2024-02-28T09:41:05;64.90;;;25.75;;
54917;SDS011;40818;50.562;7.454;2024-02-28T09:51:12;60.42;;;21.17;;
54917;SDS011;40818;50.562;7.454;2024-02-28T10:01:16;52.55;;;21.40;;
54917;SDS011;40818;50.562;7.454;2024-02-28T10:11:26;54.03;;;21.00;;
54917;SDS011;40818;50.562;7.454;2024-02-28T10:21:30;58.65;;;22.95;;
54917;SDS011;40818;50.562;7.454;2024-02-28T10:31:37;51.35;;;20.88;;
54917;SDS011;40818;50.562;7.454;2024-02-28T10:41:40;50.60;;;19.25;;
54917;SDS011;40818;50.562;7.454;2024-02-28T10:51:48;47.83;;;19.10;;
54917;SDS011;40818;50.562;7.454;2024-02-28T11:01:52;46.17;;;18.77;;
54917;SDS011;40818;50.562;7.454;2024-02-28T11:11:58;43.08;;;18.30;;
54917;SDS011;40818;50.562;7.454;2024-02-28T11:22:01;41.08;;;18.42;;
54917;SDS011;40818;50.562;7.454;2024-02-28T11:32:09;39.65;;;19.00;;
54917;SDS011;40818;50.562;7.454;2024-02-28T11:42:14;34.25;;;17.50;;
54917;SDS011;40818;50.562;7.454;2024-02-28T11:52:21;34.78;;;16.40;;
54917;SDS011;40818;50.562;7.454;2024-02-28T12:02:25;33.60;;;17.55;;
54917;SDS011;40818;50.562;7.454;2024-02-28T12:12:33;33.58;;;18.23;;
54917;SDS011;40818;50.562;7.454;2024-02-28T12:22:36;32.67;;;18.02;;
54917;SDS011;40818;50.562;7.454;2024-02-28T12:32:42;29.95;;;15.23;;
54917;SDS011;40818;50.562;7.454;2024-02-28T12:42:46;38.53;;;17.45;;
54917;SDS011;40818;50.562;7.454;2024-02-28T12:52:52;36.55;;;17.92;;
54917;SDS011;40818;50.562;7.454;2024-02-28T13:02:55;43.88;;;20.65;;
54917;SDS011;40818;50.562;7.454;2024-02-28T13:13:02;38.92;;;19.48;;
54917;SDS011;40818;50.562;7.454;2024-02-28T13:23:06;43.80;;;17.73;;
54917;SDS011;40818;50.562;7.454;2024-02-28T13:33:12;36.47;;;17.40;;
54917;SDS011;40818;50.562;7.454;2024-02-28T13:43:16;28.25;;;12.52;;
54917;SDS011;40818;50.562;7.454;2024-02-28T13:53:23;32.90;;;14.00;;
54917;SDS011;40818;50.562;7.454;2024-02-28T14:03:27;28.92;;;14.93;;
54917;SDS011;40818;50.562;7.454;2024-02-28T14:13:34;31.10;;;13.90;;
54917;SDS011;40818;50.562;7.454;2024-02-28T14:23:38;26.20;;;11.75;;
54917;SDS011;40818;50.562;7.454;2024-02-28T14:33:44;25.55;;;9.75;;
54917;SDS011;40818;50.562;7.454;2024-02-28T14:43:47;21.75;;;10.35;;
54917;SDS011;40818;50.562;7.454;2024-02-28T14:53:53;22.27;;;8.20;;
54917;SDS011;40818;50.562;7.454;2024-02-28T15:03:57;16.95;;;6.32;;
54917;SDS011;40818;50.562;7.454;2024-02-28T15:14:04;14.55;;;5.18;;
54917;SDS011;40818;50.562;7.454;2024-02-28T15:24:07;13.82;;;4.13;;
54917;SDS011;40818;50.562;7.454;2024-02-28T15:34:13;11.48;;;3.60;;
54917;SDS011;40818;50.562;7.454;2024-02-28T15:44:17;15.27;;;5.93;;
54917;SDS011;40818;50.562;7.454;2024-02-28T15:54:23;14.20;;;5.53;;
54917;SDS011;40818;50.562;7.454;2024-02-28T16:04:27;13.73;;;4.57;;
54917;SDS011;40818;50.562;7.454;2024-02-28T16:14:33;15.80;;;5.63;;
54917;SDS011;40818;50.562;7.454;2024-02-28T16:24:36;18.20;;;6.32;;
54917;SDS011;40818;50.562;7.454;2024-02-28T16:34:43;17.30;;;6.75;;
54917;SDS011;40818;50.562;7.454;2024-02-28T16:44:46;19.98;;;8.00;;
54917;SDS011;40818;50.562;7.454;2024-02-28T16:54:52;22.80;;;7.28;;
54917;SDS011;40818;50.562;7.454;2024-02-28T17:04:55;18.60;;;7.00;;
54917;SDS011;40818;50.562;7.454;2024-02-28T17:15:02;21.98;;;8.05;;
54917;SDS011;40818;50.562;7.454;2024-02-28T17:25:06;20.58;;;7.55;;
54917;SDS011;40818;50.562;7.454;2024-02-28T17:35:13;20.08;;;8.35;;
54917;SDS011;40818;50.562;7.454;2024-02-28T17:45:17;12.43;;;5.63;;
54917;SDS011;40818;50.562;7.454;2024-02-28T17:55:23;13.63;;;4.78;;
54917;SDS011;40818;50.562;7.454;2024-02-28T18:05:28;8.43;;;2.85;;
54917;SDS011;40818;50.562;7.454;2024-02-28T18:15:34;6.88;;;2.22;;
54917;SDS011;40818;50.562;7.454;2024-02-28T18:25:37;7.75;;;2.72;;
54917;SDS011;40818;50.562;7.454;2024-02-28T18:35:43;12.13;;;2.88;;
54917;SDS011;40818;50.562;7.454;2024-02-28T18:45:48;10.73;;;3.75;;
54917;SDS011;40818;50.562;7.454;2024-02-28T18:55:54;10.65;;;3.88;;
54917;SDS011;40818;50.562;7.454;2024-02-28T19:05:57;15.18;;;2.50;;
54917;SDS011;40818;50.562;7.454;2024-02-28T19:16:04;10.13;;;2.38;;
54917;SDS011;40818;50.562;7.454;2024-02-28T19:26:08;6.28;;;2.13;;
54917;SDS011;40818;50.562;7.454;2024-02-28T19:36:14;5.68;;;1.67;;
54917;SDS011;40818;50.562;7.454;2024-02-28T19:46:18;9.55;;;1.85;;
54917;SDS011;40818;50.562;7.454;2024-02-28T19:56:24;6.53;;;1.90;;
54917;SDS011;40818;50.562;7.454;2024-02-28T20:06:28;5.93;;;1.85;;
54917;SDS011;40818;50.562;7.454;2024-02-28T20:16:34;5.53;;;1.30;;
54917;SDS011;40818;50.562;7.454;2024-02-28T20:26:38;5.85;;;1.70;;
54917;SDS011;40818;50.562;7.454;2024-02-28T20:36:44;10.80;;;2.95;;
54917;SDS011;40818;50.562;7.454;2024-02-28T20:46:48;8.60;;;1.70;;
54917;SDS011;40818;50.562;7.454;2024-02-28T20:56:54;6.35;;;1.90;;
54917;SDS011;40818;50.562;7.454;2024-02-28T21:06:57;8.30;;;2.40;;
54917;SDS011;40818;50.562;7.454;2024-02-28T21:17:03;8.27;;;2.40;;
54917;SDS011;40818;50.562;7.454;2024-02-28T21:27:07;9.73;;;2.08;;
54917;SDS011;40818;50.562;7.454;2024-02-28T21:37:13;8.60;;;2.05;;
54917;SDS011;40818;50.562;7.454;2024-02-28T21:47:16;10.98;;;3.33;;
54917;SDS011;40818;50.562;7.454;2024-02-28T21:57:23;9.30;;;2.47;;
54917;SDS011;40818;50.562;7.454;2024-02-28T22:07:26;11.18;;;3.97;;
54917;SDS011;40818;50.562;7.454;2024-02-28T22:17:32;13.18;;;3.85;;
54917;SDS011;40818;50.562;7.454;2024-02-28T22:27:36;11.57;;;2.97;;
54917;SDS011;40818;50.562;7.454;2024-02-28T22:37:42;10.27;;;3.78;;
54917;SDS011;40818;50.562;7.454;2024-02-28T22:47:45;10.60;;;4.00;;
54917;SDS011;40818;50.562;7.454;2024-02-28T22:57:51;14.65;;;3.85;;
54917;SDS011;40818;50.562;7.454;2024-02-28T23:07:55;12.30;;;4.57;;
54917;SDS011;40818;50.562;7.454;2024-02-28T23:18:01;19.15;;;5.53;;
54917;SDS011;40818;50.562;7.454;2024-02-28T23:28:05;23.13;;;7.10;;
54917;SDS011;40818;50.562;7.454;2024-02-28T23:38:11;21.92;;;7.40;;
54917;SDS011;40818;50.562;7.454;2024-02-28T23:48:14;23.27;;;7.85;;
54917;SDS011;40818;50.562;7.454;2024-02-28T23:58:20;30.08;;;8.88;;
